Galt, MO

8:18 AM CST on December 22, 2014 (GMT -0600)
Lamoni Municipal | Change Station
CLOSE
Current Station
Airport
Location: Lamoni,
Elevation: 1132 ft
Nearby Weather Stations

Elev 1132 ft 40.63 °N, 93.90 °W | Updated 25 minutes ago

Overcast
Overcast
39 °F
Feels Like 32 °F
N
10
Wind Variable Wind from SE

Today
High -- | Low -- °F
--% Chance of Precip.
Yesterday
High -- | Low -- °F
Precip. -- in
7:32 AM 4:51 PM
New Moon, 0% visible
Pressure 29.64 in
Visibility 7.0 miles
Clouds Overcast 1100 ft
Windchill 32 °F
Dew Point 37 °F
Humidity 93%
Rainfall 0.00 in
Snow Depth Not available.
UV 0 out of 12
Pollen .10 out of 12
Air Quality Not available.
Flu Activity Not available.
METAR KLWD 221353Z AUTO 14009KT 7SM -RA OVC011 04/03 A2962 RMK AO2 RAB36 SLP035 P0000 T00390028

More Conditions Fewer Conditions

Pressure 29.64 in
Visibility 7.0 miles
Clouds Overcast 1100 ft
Windchill 32 °F
Dew Point 37 °F
Humidity 93%
Rainfall 0.00 in
Snow Depth Not available.
UV 0 out of 12
Pollen .10 out of 12
Air Quality Not available.
Flu Activity Not available.
METAR KLWD 221353Z AUTO 14009KT 7SM -RA OVC011 04/03 A2962 RMK AO2 RAB36 SLP035 P0000 T00390028

More Conditions Fewer Conditions

10-Day Weather Forecast

Almanac

Astronomy

Dec. 22, 2014 Rise Set
Actual Time
Civil Twilight
Nautical Twilight
Astronomical Twilight
Moon
Length of Visible Light
Length of Day
Tomorrow will be .
, % of the Moon is Illuminated

Today's Extremes

State Highs State Lows

Community

WunderPhotos

Upload Photos

1,779,602 photos uploaded!

WunderBlogs® & News

Nearby

Air Quality

  Air Quality AQ Index Pollutant
Not available.

Snow Depth

Station Depth Elevation

Earthquake Activity

City Distance Mag. Time & Date
Minimum magnitude displayed is 2.5.

Coastal Water Temperatures

Place Temperature

Nearby Weather Stations